sensor_id;sensor_type;location;lat;lon;timestamp;P1;durP1;ratioP1;P2;durP2;ratioP2
59374;SDS011;45172;55.006;73.460;2023-07-31T00:15:27;13.93;;;10.40;;
59374;SDS011;45172;55.006;73.460;2023-07-31T00:57:10;28.60;;;16.75;;
59374;SDS011;45172;55.006;73.460;2023-07-31T01:00:27;28.17;;;16.80;;
59374;SDS011;45172;55.006;73.460;2023-07-31T01:02:56;19.38;;;11.98;;
59374;SDS011;45172;55.006;73.460;2023-07-31T01:08:36;13.00;;;10.18;;
59374;SDS011;45172;55.006;73.460;2023-07-31T01:16:01;20.58;;;12.55;;
59374;SDS011;45172;55.006;73.460;2023-07-31T01:27:30;20.58;;;11.77;;
59374;SDS011;45172;55.006;73.460;2023-07-31T01:34:18;13.68;;;6.97;;
59374;SDS011;45172;55.006;73.460;2023-07-31T01:41:05;9.68;;;7.43;;
59374;SDS011;45172;55.006;73.460;2023-07-31T01:47:49;11.25;;;7.38;;
59374;SDS011;45172;55.006;73.460;2023-07-31T01:54:34;12.35;;;7.22;;
59374;SDS011;45172;55.006;73.460;2023-07-31T02:01:28;17.73;;;6.70;;
59374;SDS011;45172;55.006;73.460;2023-07-31T02:07:35;11.68;;;7.00;;
59374;SDS011;45172;55.006;73.460;2023-07-31T02:10:01;17.90;;;7.22;;
59374;SDS011;45172;55.006;73.460;2023-07-31T02:12:27;17.67;;;6.82;;
59374;SDS011;45172;55.006;73.460;2023-07-31T02:14:56;18.20;;;6.78;;
59374;SDS011;45172;55.006;73.460;2023-07-31T02:17:24;13.73;;;6.70;;
59374;SDS011;45172;55.006;73.460;2023-07-31T02:19:50;12.32;;;6.30;;
59374;SDS011;45172;55.006;73.460;2023-07-31T02:22:16;13.23;;;5.88;;
59374;SDS011;45172;55.006;73.460;2023-07-31T02:24:43;17.83;;;8.95;;
59374;SDS011;45172;55.006;73.460;2023-07-31T02:27:09;14.55;;;8.63;;
59374;SDS011;45172;55.006;73.460;2023-07-31T02:29:37;17.73;;;8.85;;
59374;SDS011;45172;55.006;73.460;2023-07-31T02:32:03;12.43;;;7.53;;
59374;SDS011;45172;55.006;73.460;2023-07-31T02:34:29;10.52;;;6.38;;
59374;SDS011;45172;55.006;73.460;2023-07-31T02:36:55;14.27;;;6.03;;
59374;SDS011;45172;55.006;73.460;2023-07-31T02:39:22;11.15;;;5.85;;
59374;SDS011;45172;55.006;73.460;2023-07-31T02:41:50;9.65;;;5.35;;
59374;SDS011;45172;55.006;73.460;2023-07-31T02:44:17;9.85;;;5.72;;
59374;SDS011;45172;55.006;73.460;2023-07-31T02:46:43;6.80;;;5.65;;
59374;SDS011;45172;55.006;73.460;2023-07-31T02:49:09;7.88;;;5.28;;
59374;SDS011;45172;55.006;73.460;2023-07-31T02:51:38;6.75;;;5.32;;
59374;SDS011;45172;55.006;73.460;2023-07-31T02:54:05;9.25;;;6.05;;
59374;SDS011;45172;55.006;73.460;2023-07-31T02:56:31;10.38;;;5.55;;
59374;SDS011;45172;55.006;73.460;2023-07-31T02:58:59;13.82;;;9.98;;
59374;SDS011;45172;55.006;73.460;2023-07-31T03:01:25;9.90;;;8.52;;
59374;SDS011;45172;55.006;73.460;2023-07-31T03:03:54;20.70;;;12.18;;
59374;SDS011;45172;55.006;73.460;2023-07-31T03:06:21;20.23;;;9.32;;
59374;SDS011;45172;55.006;73.460;2023-07-31T03:08:47;26.13;;;6.22;;
59374;SDS011;45172;55.006;73.460;2023-07-31T03:11:13;14.57;;;5.47;;
59374;SDS011;45172;55.006;73.460;2023-07-31T03:13:42;8.32;;;4.95;;
59374;SDS011;45172;55.006;73.460;2023-07-31T03:16:10;6.60;;;5.38;;
59374;SDS011;45172;55.006;73.460;2023-07-31T03:18:46;11.98;;;6.00;;
59374;SDS011;45172;55.006;73.460;2023-07-31T03:21:12;14.02;;;8.30;;
59374;SDS011;45172;55.006;73.460;2023-07-31T03:23:38;8.23;;;6.53;;
59374;SDS011;45172;55.006;73.460;2023-07-31T03:26:22;20.33;;;5.50;;
59374;SDS011;45172;55.006;73.460;2023-07-31T03:28:50;11.63;;;5.43;;
59374;SDS011;45172;55.006;73.460;2023-07-31T03:31:20;15.00;;;5.82;;
59374;SDS011;45172;55.006;73.460;2023-07-31T03:33:46;10.27;;;5.78;;
59374;SDS011;45172;55.006;73.460;2023-07-31T03:36:12;8.23;;;6.03;;
59374;SDS011;45172;55.006;73.460;2023-07-31T03:38:39;19.95;;;6.15;;
59374;SDS011;45172;55.006;73.460;2023-07-31T03:41:06;13.57;;;11.48;;
59374;SDS011;45172;55.006;73.460;2023-07-31T03:43:32;8.88;;;5.85;;
59374;SDS011;45172;55.006;73.460;2023-07-31T03:46:01;10.38;;;5.22;;
59374;SDS011;45172;55.006;73.460;2023-07-31T03:48:28;9.35;;;6.25;;
59374;SDS011;45172;55.006;73.460;2023-07-31T03:50:55;12.57;;;6.20;;
59374;SDS011;45172;55.006;73.460;2023-07-31T03:53:21;10.07;;;5.50;;
59374;SDS011;45172;55.006;73.460;2023-07-31T03:55:50;10.15;;;5.30;;
59374;SDS011;45172;55.006;73.460;2023-07-31T03:58:16;7.32;;;5.10;;
59374;SDS011;45172;55.006;73.460;2023-07-31T04:00:42;6.57;;;4.90;;
59374;SDS011;45172;55.006;73.460;2023-07-31T04:03:12;7.38;;;5.18;;
59374;SDS011;45172;55.006;73.460;2023-07-31T04:05:38;6.63;;;4.90;;
59374;SDS011;45172;55.006;73.460;2023-07-31T04:08:09;10.93;;;5.07;;
59374;SDS011;45172;55.006;73.460;2023-07-31T04:10:38;7.28;;;4.90;;
59374;SDS011;45172;55.006;73.460;2023-07-31T04:13:07;8.40;;;5.53;;
59374;SDS011;45172;55.006;73.460;2023-07-31T04:15:33;7.05;;;5.03;;
59374;SDS011;45172;55.006;73.460;2023-07-31T04:18:00;5.40;;;4.90;;
59374;SDS011;45172;55.006;73.460;2023-07-31T04:20:27;10.52;;;4.80;;
59374;SDS011;45172;55.006;73.460;2023-07-31T04:22:54;10.40;;;4.75;;
59374;SDS011;45172;55.006;73.460;2023-07-31T04:25:20;6.85;;;4.53;;
59374;SDS011;45172;55.006;73.460;2023-07-31T04:27:49;5.80;;;5.18;;
59374;SDS011;45172;55.006;73.460;2023-07-31T04:30:16;5.28;;;4.75;;
59374;SDS011;45172;55.006;73.460;2023-07-31T04:32:42;9.60;;;4.85;;
59374;SDS011;45172;55.006;73.460;2023-07-31T04:35:11;11.30;;;5.15;;
59374;SDS011;45172;55.006;73.460;2023-07-31T04:37:38;9.98;;;5.28;;
59374;SDS011;45172;55.006;73.460;2023-07-31T04:40:08;9.75;;;7.57;;
59374;SDS011;45172;55.006;73.460;2023-07-31T04:42:35;7.88;;;5.00;;
59374;SDS011;45172;55.006;73.460;2023-07-31T04:45:03;7.35;;;4.78;;
59374;SDS011;45172;55.006;73.460;2023-07-31T04:47:30;17.80;;;4.80;;
59374;SDS011;45172;55.006;73.460;2023-07-31T04:50:00;11.85;;;4.57;;
59374;SDS011;45172;55.006;73.460;2023-07-31T04:52:28;8.82;;;5.30;;
59374;SDS011;45172;55.006;73.460;2023-07-31T04:54:55;12.20;;;4.82;;
59374;SDS011;45172;55.006;73.460;2023-07-31T04:57:21;10.52;;;4.50;;
59374;SDS011;45172;55.006;73.460;2023-07-31T04:59:47;5.50;;;4.30;;
59374;SDS011;45172;55.006;73.460;2023-07-31T05:02:14;6.32;;;4.72;;
59374;SDS011;45172;55.006;73.460;2023-07-31T05:04:40;7.68;;;4.72;;
59374;SDS011;45172;55.006;73.460;2023-07-31T05:07:06;7.97;;;4.30;;
59374;SDS011;45172;55.006;73.460;2023-07-31T05:09:33;8.02;;;4.50;;
59374;SDS011;45172;55.006;73.460;2023-07-31T05:11:59;10.45;;;4.20;;
59374;SDS011;45172;55.006;73.460;2023-07-31T05:14:25;9.32;;;4.65;;
59374;SDS011;45172;55.006;73.460;2023-07-31T05:16:52;5.93;;;4.20;;
59374;SDS011;45172;55.006;73.460;2023-07-31T05:19:18;5.38;;;4.07;;
59374;SDS011;45172;55.006;73.460;2023-07-31T05:21:44;5.90;;;4.10;;
59374;SDS011;45172;55.006;73.460;2023-07-31T05:24:11;5.57;;;3.72;;
59374;SDS011;45172;55.006;73.460;2023-07-31T05:26:37;5.18;;;4.00;;
59374;SDS011;45172;55.006;73.460;2023-07-31T05:29:03;4.53;;;3.65;;
59374;SDS011;45172;55.006;73.460;2023-07-31T05:31:29;3.88;;;3.58;;
59374;SDS011;45172;55.006;73.460;2023-07-31T05:33:58;8.05;;;4.95;;
59374;SDS011;45172;55.006;73.460;2023-07-31T05:36:25;6.38;;;4.43;;
59374;SDS011;45172;55.006;73.460;2023-07-31T05:38:51;6.57;;;4.70;;
59374;SDS011;45172;55.006;73.460;2023-07-31T05:41:17;8.60;;;4.45;;
59374;SDS011;45172;55.006;73.460;2023-07-31T05:43:44;6.75;;;4.30;;
59374;SDS011;45172;55.006;73.460;2023-07-31T05:46:10;6.10;;;4.35;;
59374;SDS011;45172;55.006;73.460;2023-07-31T05:48:38;5.70;;;4.25;;
59374;SDS011;45172;55.006;73.460;2023-07-31T05:51:04;3.95;;;3.65;;
59374;SDS011;45172;55.006;73.460;2023-07-31T05:53:30;4.32;;;3.78;;
59374;SDS011;45172;55.006;73.460;2023-07-31T05:55:56;6.55;;;3.95;;
59374;SDS011;45172;55.006;73.460;2023-07-31T05:58:22;4.45;;;4.03;;
59374;SDS011;45172;55.006;73.460;2023-07-31T06:00:48;9.82;;;4.53;;
59374;SDS011;45172;55.006;73.460;2023-07-31T06:03:14;9.20;;;4.78;;
59374;SDS011;45172;55.006;73.460;2023-07-31T06:05:41;7.25;;;4.35;;
59374;SDS011;45172;55.006;73.460;2023-07-31T06:08:07;13.32;;;3.85;;
59374;SDS011;45172;55.006;73.460;2023-07-31T06:10:33;5.82;;;4.25;;
59374;SDS011;45172;55.006;73.460;2023-07-31T06:13:00;12.60;;;4.15;;
59374;SDS011;45172;55.006;73.460;2023-07-31T06:15:26;5.82;;;3.97;;
59374;SDS011;45172;55.006;73.460;2023-07-31T06:17:53;10.85;;;4.40;;
59374;SDS011;45172;55.006;73.460;2023-07-31T06:20:19;5.18;;;3.80;;
59374;SDS011;45172;55.006;73.460;2023-07-31T06:22:45;6.47;;;3.67;;
59374;SDS011;45172;55.006;73.460;2023-07-31T06:25:11;5.07;;;3.92;;
59374;SDS011;45172;55.006;73.460;2023-07-31T06:27:38;6.45;;;3.60;;
59374;SDS011;45172;55.006;73.460;2023-07-31T06:30:04;7.05;;;3.83;;
59374;SDS011;45172;55.006;73.460;2023-07-31T06:32:31;5.68;;;3.80;;
59374;SDS011;45172;55.006;73.460;2023-07-31T06:34:57;5.97;;;3.97;;
59374;SDS011;45172;55.006;73.460;2023-07-31T06:37:23;6.32;;;3.58;;
59374;SDS011;45172;55.006;73.460;2023-07-31T06:39:49;4.75;;;3.10;;
59374;SDS011;45172;55.006;73.460;2023-07-31T06:42:16;5.85;;;3.53;;
59374;SDS011;45172;55.006;73.460;2023-07-31T06:44:42;5.95;;;3.60;;
59374;SDS011;45172;55.006;73.460;2023-07-31T06:47:08;6.72;;;3.20;;
59374;SDS011;45172;55.006;73.460;2023-07-31T06:49:34;3.88;;;3.58;;
59374;SDS011;45172;55.006;73.460;2023-07-31T06:52:00;6.30;;;3.20;;
59374;SDS011;45172;55.006;73.460;2023-07-31T06:54:27;3.90;;;3.50;;
59374;SDS011;45172;55.006;73.460;2023-07-31T06:56:53;7.88;;;3.40;;
59374;SDS011;45172;55.006;73.460;2023-07-31T06:59:19;12.20;;;3.40;;
59374;SDS011;45172;55.006;73.460;2023-07-31T07:01:45;9.45;;;3.55;;
59374;SDS011;45172;55.006;73.460;2023-07-31T07:04:13;4.70;;;3.30;;
59374;SDS011;45172;55.006;73.460;2023-07-31T07:06:39;5.00;;;3.55;;
59374;SDS011;45172;55.006;73.460;2023-07-31T07:09:05;3.90;;;3.50;;
59374;SDS011;45172;55.006;73.460;2023-07-31T07:11:32;6.03;;;3.05;;
59374;SDS011;45172;55.006;73.460;2023-07-31T07:13:57;5.63;;;3.13;;
59374;SDS011;45172;55.006;73.460;2023-07-31T07:16:24;3.70;;;3.40;;
59374;SDS011;45172;55.006;73.460;2023-07-31T07:18:52;5.60;;;3.38;;
59374;SDS011;45172;55.006;73.460;2023-07-31T07:21:18;4.88;;;3.17;;
59374;SDS011;45172;55.006;73.460;2023-07-31T07:23:44;3.70;;;3.40;;
59374;SDS011;45172;55.006;73.460;2023-07-31T07:26:10;5.57;;;3.42;;
59374;SDS011;45172;55.006;73.460;2023-07-31T07:28:37;9.07;;;3.95;;
59374;SDS011;45172;55.006;73.460;2023-07-31T07:31:03;10.75;;;3.47;;
59374;SDS011;45172;55.006;73.460;2023-07-31T07:33:29;10.13;;;4.15;;
59374;SDS011;45172;55.006;73.460;2023-07-31T07:35:59;13.20;;;4.30;;
59374;SDS011;45172;55.006;73.460;2023-07-31T07:38:26;8.25;;;4.25;;
59374;SDS011;45172;55.006;73.460;2023-07-31T07:40:53;24.30;;;5.63;;
59374;SDS011;45172;55.006;73.460;2023-07-31T07:43:22;30.17;;;6.47;;
59374;SDS011;45172;55.006;73.460;2023-07-31T07:45:49;14.80;;;4.63;;
59374;SDS011;45172;55.006;73.460;2023-07-31T07:48:15;12.93;;;4.60;;
59374;SDS011;45172;55.006;73.460;2023-07-31T07:50:43;15.32;;;5.28;;
59374;SDS011;45172;55.006;73.460;2023-07-31T07:53:09;9.90;;;4.90;;
59374;SDS011;45172;55.006;73.460;2023-07-31T07:55:35;13.07;;;4.57;;
59374;SDS011;45172;55.006;73.460;2023-07-31T07:58:01;14.13;;;4.35;;
59374;SDS011;45172;55.006;73.460;2023-07-31T08:00:31;5.85;;;4.40;;
59374;SDS011;45172;55.006;73.460;2023-07-31T08:03:00;5.80;;;4.07;;
59374;SDS011;45172;55.006;73.460;2023-07-31T08:05:59;5.95;;;3.88;;
59374;SDS011;45172;55.006;73.460;2023-07-31T08:08:28;7.25;;;4.30;;
59374;SDS011;45172;55.006;73.460;2023-07-31T08:10:54;6.57;;;4.75;;
59374;SDS011;45172;55.006;73.460;2023-07-31T08:13:23;7.82;;;4.50;;
59374;SDS011;45172;55.006;73.460;2023-07-31T08:15:49;8.13;;;4.97;;
59374;SDS011;45172;55.006;73.460;2023-07-31T08:18:15;7.57;;;4.53;;
59374;SDS011;45172;55.006;73.460;2023-07-31T08:20:42;9.00;;;4.68;;
59374;SDS011;45172;55.006;73.460;2023-07-31T08:23:09;14.02;;;6.22;;
59374;SDS011;45172;55.006;73.460;2023-07-31T08:25:35;12.30;;;6.60;;
59374;SDS011;45172;55.006;73.460;2023-07-31T08:28:04;12.25;;;6.43;;
59374;SDS011;45172;55.006;73.460;2023-07-31T08:30:31;15.57;;;6.25;;
59374;SDS011;45172;55.006;73.460;2023-07-31T08:32:59;15.20;;;5.15;;
59374;SDS011;45172;55.006;73.460;2023-07-31T08:35:26;6.97;;;4.72;;
59374;SDS011;45172;55.006;73.460;2023-07-31T08:38:05;10.48;;;5.35;;
59374;SDS011;45172;55.006;73.460;2023-07-31T08:40:31;14.10;;;5.38;;
59374;SDS011;45172;55.006;73.460;2023-07-31T08:42:58;11.43;;;5.68;;
59374;SDS011;45172;55.006;73.460;2023-07-31T08:45:27;19.85;;;5.90;;
59374;SDS011;45172;55.006;73.460;2023-07-31T08:47:55;17.58;;;5.68;;
59374;SDS011;45172;55.006;73.460;2023-07-31T08:50:22;16.90;;;5.97;;
59374;SDS011;45172;55.006;73.460;2023-07-31T08:52:49;21.98;;;5.85;;
59374;SDS011;45172;55.006;73.460;2023-07-31T08:55:17;12.93;;;5.55;;
59374;SDS011;45172;55.006;73.460;2023-07-31T08:57:49;17.23;;;6.63;;
59374;SDS011;45172;55.006;73.460;2023-07-31T09:00:18;17.98;;;6.68;;
59374;SDS011;45172;55.006;73.460;2023-07-31T09:02:48;16.58;;;6.47;;
59374;SDS011;45172;55.006;73.460;2023-07-31T09:05:22;15.00;;;5.90;;
59374;SDS011;45172;55.006;73.460;2023-07-31T09:07:49;14.27;;;5.97;;
59374;SDS011;45172;55.006;73.460;2023-07-31T09:10:17;13.32;;;5.72;;
59374;SDS011;45172;55.006;73.460;2023-07-31T09:12:43;22.20;;;6.45;;
59374;SDS011;45172;55.006;73.460;2023-07-31T09:15:11;16.13;;;6.25;;
59374;SDS011;45172;55.006;73.460;2023-07-31T09:17:37;23.38;;;7.03;;
59374;SDS011;45172;55.006;73.460;2023-07-31T09:20:19;15.25;;;6.53;;
59374;SDS011;45172;55.006;73.460;2023-07-31T09:22:47;13.60;;;6.90;;
59374;SDS011;45172;55.006;73.460;2023-07-31T09:25:26;23.83;;;6.72;;
59374;SDS011;45172;55.006;73.460;2023-07-31T09:28:03;15.32;;;7.07;;
59374;SDS011;45172;55.006;73.460;2023-07-31T09:30:30;17.02;;;5.85;;
59374;SDS011;45172;55.006;73.460;2023-07-31T09:33:09;10.27;;;5.50;;
59374;SDS011;45172;55.006;73.460;2023-07-31T09:35:35;14.43;;;5.80;;
59374;SDS011;45172;55.006;73.460;2023-07-31T09:38:05;14.48;;;5.75;;
59374;SDS011;45172;55.006;73.460;2023-07-31T09:40:33;14.70;;;5.65;;
59374;SDS011;45172;55.006;73.460;2023-07-31T09:43:05;13.48;;;5.95;;
59374;SDS011;45172;55.006;73.460;2023-07-31T09:45:39;13.05;;;5.82;;
59374;SDS011;45172;55.006;73.460;2023-07-31T09:48:09;12.50;;;5.55;;
59374;SDS011;45172;55.006;73.460;2023-07-31T09:50:37;11.98;;;5.80;;
59374;SDS011;45172;55.006;73.460;2023-07-31T09:53:05;21.80;;;5.68;;
59374;SDS011;45172;55.006;73.460;2023-07-31T09:55:33;9.32;;;5.53;;
59374;SDS011;45172;55.006;73.460;2023-07-31T09:58:03;11.48;;;5.00;;
59374;SDS011;45172;55.006;73.460;2023-07-31T10:00:31;20.83;;;5.03;;
59374;SDS011;45172;55.006;73.460;2023-07-31T10:02:59;7.63;;;4.32;;
59374;SDS011;45172;55.006;73.460;2023-07-31T10:05:39;8.82;;;3.70;;
59374;SDS011;45172;55.006;73.460;2023-07-31T10:08:09;5.63;;;3.45;;
59374;SDS011;45172;55.006;73.460;2023-07-31T10:10:39;9.48;;;3.22;;
59374;SDS011;45172;55.006;73.460;2023-07-31T10:13:08;6.82;;;2.40;;
59374;SDS011;45172;55.006;73.460;2023-07-31T10:15:35;13.40;;;3.33;;
59374;SDS011;45172;55.006;73.460;2023-07-31T10:18:06;10.73;;;3.30;;
59374;SDS011;45172;55.006;73.460;2023-07-31T10:20:33;11.85;;;3.40;;
59374;SDS011;45172;55.006;73.460;2023-07-31T10:23:00;9.57;;;3.65;;
59374;SDS011;45172;55.006;73.460;2023-07-31T10:25:26;9.02;;;3.78;;
59374;SDS011;45172;55.006;73.460;2023-07-31T10:27:54;12.50;;;4.20;;
59374;SDS011;45172;55.006;73.460;2023-07-31T10:30:22;8.88;;;3.95;;
59374;SDS011;45172;55.006;73.460;2023-07-31T10:32:53;12.60;;;4.18;;
59374;SDS011;45172;55.006;73.460;2023-07-31T10:35:19;13.73;;;4.70;;
59374;SDS011;45172;55.006;73.460;2023-07-31T10:37:50;11.18;;;4.80;;
59374;SDS011;45172;55.006;73.460;2023-07-31T10:40:18;16.20;;;4.50;;
59374;SDS011;45172;55.006;73.460;2023-07-31T10:42:49;9.13;;;3.78;;
59374;SDS011;45172;55.006;73.460;2023-07-31T10:45:32;11.13;;;3.60;;
59374;SDS011;45172;55.006;73.460;2023-07-31T10:48:12;7.15;;;3.58;;
59374;SDS011;45172;55.006;73.460;2023-07-31T10:50:46;14.18;;;3.83;;
59374;SDS011;45172;55.006;73.460;2023-07-31T10:53:24;12.68;;;3.75;;
59374;SDS011;45172;55.006;73.460;2023-07-31T10:55:52;9.40;;;3.95;;
59374;SDS011;45172;55.006;73.460;2023-07-31T10:58:19;12.88;;;3.90;;
59374;SDS011;45172;55.006;73.460;2023-07-31T11:00:49;14.63;;;4.38;;
59374;SDS011;45172;55.006;73.460;2023-07-31T11:03:18;11.23;;;4.03;;
59374;SDS011;45172;55.006;73.460;2023-07-31T11:08:22;13.82;;;4.50;;
59374;SDS011;45172;55.006;73.460;2023-07-31T11:13:28;7.63;;;4.00;;
59374;SDS011;45172;55.006;73.460;2023-07-31T11:15:59;10.80;;;3.75;;
59374;SDS011;45172;55.006;73.460;2023-07-31T11:18:26;11.48;;;3.75;;
59374;SDS011;45172;55.006;73.460;2023-07-31T11:20:53;9.68;;;3.50;;
59374;SDS011;45172;55.006;73.460;2023-07-31T11:23:21;15.43;;;3.53;;
59374;SDS011;45172;55.006;73.460;2023-07-31T11:25:48;10.40;;;3.17;;
59374;SDS011;45172;55.006;73.460;2023-07-31T11:28:16;10.02;;;3.80;;
59374;SDS011;45172;55.006;73.460;2023-07-31T11:30:45;8.15;;;3.55;;
59374;SDS011;45172;55.006;73.460;2023-07-31T11:33:12;11.82;;;3.85;;
59374;SDS011;45172;55.006;73.460;2023-07-31T11:38:27;11.45;;;3.20;;
59374;SDS011;45172;55.006;73.460;2023-07-31T11:40:58;7.88;;;3.42;;
59374;SDS011;45172;55.006;73.460;2023-07-31T11:43:26;11.77;;;3.33;;
59374;SDS011;45172;55.006;73.460;2023-07-31T11:45:55;12.23;;;3.20;;
59374;SDS011;45172;55.006;73.460;2023-07-31T11:48:24;11.63;;;3.60;;
59374;SDS011;45172;55.006;73.460;2023-07-31T11:50:57;9.88;;;3.25;;
59374;SDS011;45172;55.006;73.460;2023-07-31T11:53:35;8.00;;;3.25;;
59374;SDS011;45172;55.006;73.460;2023-07-31T11:56:05;6.93;;;3.47;;
59374;SDS011;45172;55.006;73.460;2023-07-31T11:58:34;9.48;;;3.30;;
59374;SDS011;45172;55.006;73.460;2023-07-31T12:01:01;6.15;;;3.30;;
59374;SDS011;45172;55.006;73.460;2023-07-31T12:03:29;9.55;;;3.67;;
59374;SDS011;45172;55.006;73.460;2023-07-31T12:05:55;6.95;;;3.10;;
59374;SDS011;45172;55.006;73.460;2023-07-31T12:08:22;9.35;;;3.38;;
59374;SDS011;45172;55.006;73.460;2023-07-31T12:10:50;11.15;;;3.75;;
59374;SDS011;45172;55.006;73.460;2023-07-31T12:13:26;8.13;;;3.55;;
59374;SDS011;45172;55.006;73.460;2023-07-31T12:15:56;22.25;;;4.43;;
59374;SDS011;45172;55.006;73.460;2023-07-31T12:18:25;4.88;;;3.50;;
59374;SDS011;45172;55.006;73.460;2023-07-31T12:21:00;9.98;;;4.63;;
59374;SDS011;45172;55.006;73.460;2023-07-31T12:23:28;13.65;;;5.55;;
59374;SDS011;45172;55.006;73.460;2023-07-31T12:26:09;12.60;;;4.57;;
59374;SDS011;45172;55.006;73.460;2023-07-31T12:28:45;9.50;;;4.30;;
59374;SDS011;45172;55.006;73.460;2023-07-31T12:31:16;15.77;;;4.60;;
59374;SDS011;45172;55.006;73.460;2023-07-31T12:33:45;11.20;;;4.30;;
59374;SDS011;45172;55.006;73.460;2023-07-31T12:36:16;10.80;;;4.28;;
59374;SDS011;45172;55.006;73.460;2023-07-31T12:38:45;7.35;;;4.82;;
59374;SDS011;45172;55.006;73.460;2023-07-31T12:41:12;16.17;;;6.05;;
59374;SDS011;45172;55.006;73.460;2023-07-31T12:43:39;15.73;;;4.85;;
59374;SDS011;45172;55.006;73.460;2023-07-31T12:46:09;10.93;;;4.85;;
59374;SDS011;45172;55.006;73.460;2023-07-31T12:48:39;21.00;;;5.40;;
59374;SDS011;45172;55.006;73.460;2023-07-31T12:51:06;18.70;;;5.60;;
59374;SDS011;45172;55.006;73.460;2023-07-31T12:53:36;20.67;;;6.15;;
59374;SDS011;45172;55.006;73.460;2023-07-31T12:56:05;20.60;;;6.97;;
59374;SDS011;45172;55.006;73.460;2023-07-31T12:58:31;18.27;;;5.88;;
59374;SDS011;45172;55.006;73.460;2023-07-31T13:01:00;26.90;;;6.43;;
59374;SDS011;45172;55.006;73.460;2023-07-31T13:03:30;16.90;;;5.60;;
59374;SDS011;45172;55.006;73.460;2023-07-31T13:05:59;17.98;;;6.18;;
59374;SDS011;45172;55.006;73.460;2023-07-31T13:08:27;18.38;;;7.75;;
59374;SDS011;45172;55.006;73.460;2023-07-31T13:10:53;20.13;;;7.47;;
59374;SDS011;45172;55.006;73.460;2023-07-31T13:13:20;13.57;;;6.22;;
59374;SDS011;45172;55.006;73.460;2023-07-31T13:15:48;19.25;;;6.43;;
59374;SDS011;45172;55.006;73.460;2023-07-31T13:18:15;19.98;;;6.22;;
59374;SDS011;45172;55.006;73.460;2023-07-31T13:20:41;27.98;;;10.25;;
59374;SDS011;45172;55.006;73.460;2023-07-31T13:23:13;30.13;;;13.02;;
59374;SDS011;45172;55.006;73.460;2023-07-31T13:25:44;25.75;;;10.50;;
59374;SDS011;45172;55.006;73.460;2023-07-31T13:28:11;22.10;;;10.55;;
59374;SDS011;45172;55.006;73.460;2023-07-31T13:30:37;30.33;;;19.13;;
59374;SDS011;45172;55.006;73.460;2023-07-31T13:33:03;62.90;;;43.05;;
59374;SDS011;45172;55.006;73.460;2023-07-31T13:35:29;38.25;;;25.77;;
59374;SDS011;45172;55.006;73.460;2023-07-31T13:37:57;125.05;;;83.57;;
59374;SDS011;45172;55.006;73.460;2023-07-31T13:40:23;126.40;;;83.38;;
59374;SDS011;45172;55.006;73.460;2023-07-31T13:42:49;30.35;;;24.13;;
59374;SDS011;45172;55.006;73.460;2023-07-31T13:45:15;20.10;;;8.82;;
59374;SDS011;45172;55.006;73.460;2023-07-31T13:47:42;24.95;;;8.55;;
59374;SDS011;45172;55.006;73.460;2023-07-31T13:50:08;21.65;;;8.07;;
59374;SDS011;45172;55.006;73.460;2023-07-31T13:52:35;16.23;;;7.68;;
59374;SDS011;45172;55.006;73.460;2023-07-31T13:55:02;18.25;;;6.30;;
59374;SDS011;45172;55.006;73.460;2023-07-31T13:57:28;22.33;;;7.55;;
59374;SDS011;45172;55.006;73.460;2023-07-31T13:59:55;17.15;;;9.15;;
59374;SDS011;45172;55.006;73.460;2023-07-31T14:02:21;17.98;;;9.90;;
59374;SDS011;45172;55.006;73.460;2023-07-31T14:04:47;18.70;;;7.82;;
59374;SDS011;45172;55.006;73.460;2023-07-31T14:07:14;23.02;;;11.68;;
59374;SDS011;45172;55.006;73.460;2023-07-31T14:09:40;25.88;;;13.98;;
59374;SDS011;45172;55.006;73.460;2023-07-31T14:12:06;23.95;;;11.55;;
59374;SDS011;45172;55.006;73.460;2023-07-31T14:14:32;29.23;;;15.15;;
59374;SDS011;45172;55.006;73.460;2023-07-31T14:16:59;17.55;;;8.70;;
59374;SDS011;45172;55.006;73.460;2023-07-31T14:19:26;12.23;;;7.50;;
59374;SDS011;45172;55.006;73.460;2023-07-31T14:21:52;44.40;;;25.98;;
59374;SDS011;45172;55.006;73.460;2023-07-31T14:24:18;33.92;;;14.18;;
59374;SDS011;45172;55.006;73.460;2023-07-31T14:26:45;25.13;;;9.32;;
59374;SDS011;45172;55.006;73.460;2023-07-31T14:29:19;30.02;;;6.90;;
59374;SDS011;45172;55.006;73.460;2023-07-31T14:31:45;29.40;;;7.70;;
59374;SDS011;45172;55.006;73.460;2023-07-31T14:34:11;15.93;;;7.82;;
59374;SDS011;45172;55.006;73.460;2023-07-31T14:36:37;17.38;;;7.60;;
59374;SDS011;45172;55.006;73.460;2023-07-31T14:39:03;21.17;;;8.25;;
59374;SDS011;45172;55.006;73.460;2023-07-31T14:41:30;32.05;;;12.45;;
59374;SDS011;45172;55.006;73.460;2023-07-31T14:43:56;73.82;;;34.20;;
59374;SDS011;45172;55.006;73.460;2023-07-31T14:46:22;59.60;;;19.42;;
59374;SDS011;45172;55.006;73.460;2023-07-31T14:48:50;52.25;;;12.98;;
59374;SDS011;45172;55.006;73.460;2023-07-31T14:51:16;42.60;;;12.45;;
59374;SDS011;45172;55.006;73.460;2023-07-31T14:53:44;27.08;;;12.98;;
59374;SDS011;45172;55.006;73.460;2023-07-31T14:56:11;33.63;;;12.50;;
59374;SDS011;45172;55.006;73.460;2023-07-31T14:58:37;31.05;;;12.02;;
59374;SDS011;45172;55.006;73.460;2023-07-31T15:01:03;22.92;;;11.02;;
59374;SDS011;45172;55.006;73.460;2023-07-31T15:03:30;27.60;;;15.18;;
59374;SDS011;45172;55.006;73.460;2023-07-31T15:05:56;36.13;;;17.88;;
59374;SDS011;45172;55.006;73.460;2023-07-31T15:08:22;36.35;;;18.05;;
59374;SDS011;45172;55.006;73.460;2023-07-31T15:10:49;34.17;;;15.63;;
59374;SDS011;45172;55.006;73.460;2023-07-31T15:13:15;22.13;;;11.32;;
59374;SDS011;45172;55.006;73.460;2023-07-31T15:15:42;41.97;;;11.85;;
59374;SDS011;45172;55.006;73.460;2023-07-31T15:18:09;29.88;;;12.77;;
59374;SDS011;45172;55.006;73.460;2023-07-31T15:20:35;27.42;;;12.27;;
59374;SDS011;45172;55.006;73.460;2023-07-31T15:23:02;30.52;;;14.25;;
59374;SDS011;45172;55.006;73.460;2023-07-31T15:25:28;33.95;;;12.85;;
59374;SDS011;45172;55.006;73.460;2023-07-31T15:27:54;26.85;;;13.35;;
59374;SDS011;45172;55.006;73.460;2023-07-31T15:30:23;37.33;;;16.08;;
59374;SDS011;45172;55.006;73.460;2023-07-31T15:32:50;19.50;;;13.02;;
59374;SDS011;45172;55.006;73.460;2023-07-31T15:35:21;22.38;;;9.98;;
59374;SDS011;45172;55.006;73.460;2023-07-31T15:37:47;17.80;;;8.35;;
59374;SDS011;45172;55.006;73.460;2023-07-31T15:40:13;24.73;;;6.78;;
59374;SDS011;45172;55.006;73.460;2023-07-31T15:42:39;14.40;;;7.75;;
59374;SDS011;45172;55.006;73.460;2023-07-31T15:45:07;14.25;;;7.68;;
59374;SDS011;45172;55.006;73.460;2023-07-31T15:47:36;17.13;;;6.78;;
59374;SDS011;45172;55.006;73.460;2023-07-31T15:50:02;20.17;;;6.07;;
59374;SDS011;45172;55.006;73.460;2023-07-31T15:52:29;11.73;;;5.78;;
59374;SDS011;45172;55.006;73.460;2023-07-31T15:54:55;16.95;;;6.50;;
59374;SDS011;45172;55.006;73.460;2023-07-31T15:57:23;16.23;;;6.70;;
59374;SDS011;45172;55.006;73.460;2023-07-31T15:59:49;13.82;;;6.90;;
59374;SDS011;45172;55.006;73.460;2023-07-31T16:02:15;7.47;;;5.63;;
59374;SDS011;45172;55.006;73.460;2023-07-31T16:04:41;13.05;;;6.07;;
59374;SDS011;45172;55.006;73.460;2023-07-31T16:07:07;13.02;;;6.30;;
59374;SDS011;45172;55.006;73.460;2023-07-31T16:09:34;13.48;;;6.07;;
59374;SDS011;45172;55.006;73.460;2023-07-31T16:16:36;17.73;;;8.68;;